Time;durP1;ratioP1;P1;durP2;ratioP2;P2;SDS_P1;SDS_P2;PMS_P1;PMS_P2;Temp;Humidity;BMP_temperature;BMP_pressure;BME280_temperature;BME280_humidity;BME280_pressure;Samples;Min_cycle;Max_cycle;Signal;HPM_P1;HPM_P2
2022/08/15 00:02:17;;;;;;;18.35;13.60;;;;;;;19.60;100.00;99661.84;1737844;82;21092;-69
2022/08/15 00:04:43;;;;;;;17.50;13.53;;;;;;;19.59;100.00;99661.48;1738099;81;21065;-70
2022/08/15 00:07:10;;;;;;;18.20;13.65;;;;;;;19.56;100.00;99660.42;1738278;82;22410;-69
2022/08/15 00:09:37;;;;;;;16.85;12.93;;;;;;;19.57;100.00;99659.43;1738063;82;21118;-68
2022/08/15 00:12:05;;;;;;;17.27;12.85;;;;;;;19.57;100.00;99660.77;1743428;81;21093;-68
2022/08/15 00:14:34;;;;;;;16.60;13.22;;;;;;;19.57;100.00;99665.61;1768620;81;21060;-69
2022/08/15 00:17:09;;;;;;;22.25;12.40;;;;;;;19.55;100.00;99663.55;1768570;81;21061;-68
2022/08/15 00:19:34;;;;;;;18.70;12.80;;;;;;;19.55;100.00;99662.70;1768502;80;21608;-69
2022/08/15 00:22:06;;;;;;;21.05;12.50;;;;;;;19.52;100.00;99661.63;1768993;80;21053;-68
2022/08/15 00:24:35;;;;;;;21.95;12.90;;;;;;;19.47;100.00;99657.52;1768567;81;21064;-69
2022/08/15 00:27:06;;;;;;;14.35;12.50;;;;;;;19.48;100.00;99661.86;1768894;81;21081;-68
2022/08/15 00:29:34;;;;;;;17.40;12.73;;;;;;;19.46;100.00;99661.17;1768642;81;20993;-68
2022/08/15 00:32:02;;;;;;;15.50;12.13;;;;;;;19.44;100.00;99656.90;1768737;81;21091;-69
2022/08/15 00:34:28;;;;;;;17.67;12.63;;;;;;;19.45;100.00;99655.45;1768583;81;21093;-69
2022/08/15 00:36:55;;;;;;;17.95;12.82;;;;;;;19.43;100.00;99661.40;1768637;81;21080;-68
2022/08/15 00:39:24;;;;;;;15.43;12.15;;;;;;;19.43;100.00;99660.06;1768696;80;21068;-68
2022/08/15 00:41:50;;;;;;;19.05;12.30;;;;;;;19.44;100.00;99657.77;1768334;81;21545;-67
2022/08/15 00:44:24;;;;;;;14.78;12.07;;;;;;;19.45;100.00;99658.61;1768720;81;21745;-69
2022/08/15 00:47:00;;;;;;;22.15;12.07;;;;;;;19.45;100.00;99651.44;1768263;81;21026;-68
2022/08/15 00:49:29;;;;;;;21.12;11.95;;;;;;;19.46;100.00;99654.95;1768931;81;21069;-69
2022/08/15 00:52:16;;;;;;;18.25;12.37;;;;;;;19.49;100.00;99647.55;1768789;81;21116;-69
2022/08/15 00:55:01;;;;;;;16.12;11.48;;;;;;;19.47;100.00;99649.50;1747022;81;21088;-70
2022/08/15 00:57:38;;;;;;;14.55;11.28;;;;;;;19.45;100.00;99651.94;1768738;81;21057;-67
2022/08/15 01:00:16;;;;;;;20.48;12.65;;;;;;;19.48;100.00;99644.50;1765506;81;21053;-66
2022/08/15 01:02:44;;;;;;;15.70;11.80;;;;;;;19.47;100.00;99640.16;1768475;81;21049;-69
2022/08/15 01:05:13;;;;;;;13.30;11.40;;;;;;;19.47;100.00;99648.66;1747363;81;21013;-69
2022/08/15 01:07:40;;;;;;;21.40;11.73;;;;;;;19.44;100.00;99647.09;1768784;81;21713;-68
2022/08/15 01:10:08;;;;;;;15.08;12.28;;;;;;;19.46;100.00;99651.82;1768660;81;21514;-68
2022/08/15 01:12:36;;;;;;;17.92;11.70;;;;;;;19.44;100.00;99636.41;1768529;81;21569;-68
2022/08/15 01:15:09;;;;;;;12.88;11.28;;;;;;;19.44;100.00;99635.08;1769051;80;21530;-68
2022/08/15 01:17:35;;;;;;;17.57;11.68;;;;;;;19.45;100.00;99635.42;1768564;81;21072;-68
2022/08/15 01:20:16;;;;;;;17.75;11.85;;;;;;;19.46;100.00;99635.80;1769167;81;21093;-69
2022/08/15 01:22:53;;;;;;;15.75;11.97;;;;;;;19.46;100.00;99638.47;1768724;81;21119;-68
2022/08/15 01:25:27;;;;;;;13.22;11.25;;;;;;;19.45;100.00;99632.75;1768827;81;21096;-68
2022/08/15 01:28:08;;;;;;;21.07;11.57;;;;;;;19.44;100.00;99627.53;1768635;81;21330;-69
2022/08/15 01:30:46;;;;;;;17.45;11.48;;;;;;;19.44;100.00;99629.73;1717384;82;21151;-68
2022/08/15 01:33:13;;;;;;;13.60;11.63;;;;;;;19.43;100.00;99635.19;1738093;82;21081;-67
2022/08/15 01:35:42;;;;;;;15.38;11.55;;;;;;;19.43;100.00;99628.52;1738440;82;21105;-68
2022/08/15 01:38:32;;;;;;;14.80;11.73;;;;;;;19.42;100.00;99628.17;1738014;82;21037;-68
2022/08/15 01:41:13;;;;;;;19.20;11.60;;;;;;;19.41;100.00;99623.29;1738452;82;22388;-67
2022/08/15 01:44:11;;;;;;;18.52;11.75;;;;;;;19.42;100.00;99629.01;1738330;82;21014;-67
2022/08/15 01:46:47;;;;;;;18.02;11.55;;;;;;;19.39;100.00;99623.90;1738236;82;21073;-68
2022/08/15 01:49:22;;;;;;;19.15;11.75;;;;;;;19.38;100.00;99624.89;1738170;82;21640;-69
2022/08/15 01:51:49;;;;;;;12.68;11.12;;;;;;;19.40;100.00;99626.95;1738461;82;21647;-69
2022/08/15 01:54:16;;;;;;;21.15;11.90;;;;;;;19.37;100.00;99635.22;1738228;82;21076;-69
2022/08/15 01:56:45;;;;;;;17.90;11.78;;;;;;;19.33;100.00;99625.75;1738185;82;21045;-68
2022/08/15 01:59:16;;;;;;;17.52;11.53;;;;;;;19.33;100.00;99624.42;1738137;82;21541;-68
2022/08/15 02:01:55;;;;;;;15.85;11.35;;;;;;;19.33;100.00;99620.41;1759111;81;21119;-68
2022/08/15 02:04:28;;;;;;;;;;;;;;;19.31;100.00;99618.84;1779009;80;21096;-69
2022/08/15 02:06:57;;;;;;;20.83;12.17;;;;;;;19.29;100.00;99617.13;1783005;80;20573;-68
2022/08/15 02:09:26;;;;;;;13.55;11.20;;;;;;;19.28;100.00;99611.94;1782618;80;21064;-68
2022/08/15 02:11:54;;;;;;;23.35;12.82;;;;;;;19.27;100.00;99614.23;1782923;80;21047;-68
2022/08/15 02:14:21;;;;;;;20.95;12.20;;;;;;;19.24;100.00;99605.98;1782652;80;21676;-68
2022/08/15 02:16:47;;;;;;;16.62;12.00;;;;;;;19.23;100.00;99610.11;1782395;80;21044;-68
2022/08/15 02:19:16;;;;;;;17.32;11.60;;;;;;;19.23;100.00;99613.66;1782975;80;21044;-69
2022/08/15 02:21:45;;;;;;;19.10;12.50;;;;;;;19.21;100.00;99608.05;1782646;80;21064;-68
2022/08/15 02:24:17;;;;;;;18.20;11.75;;;;;;;19.22;100.00;99609.27;1782996;80;21056;-68
2022/08/15 02:26:44;;;;;;;18.70;13.03;;;;;;;19.20;100.00;99606.36;1782645;80;21296;-70
2022/08/15 02:29:11;;;;;;;16.95;12.63;;;;;;;19.21;100.00;99604.04;1782613;80;21053;-69
2022/08/15 02:31:39;;;;;;;17.32;11.68;;;;;;;19.24;100.00;99605.15;1782739;80;21584;-69
2022/08/15 02:34:05;;;;;;;16.80;12.35;;;;;;;19.24;100.00;99604.66;1782852;80;21044;-70
2022/08/15 02:36:34;;;;;;;18.15;12.45;;;;;;;19.26;100.00;99608.05;1782628;80;21055;-68
2022/08/15 02:39:07;;;;;;;22.70;12.60;;;;;;;19.26;100.00;99604.54;1782550;80;21243;-68
2022/08/15 02:41:39;;;;;;;16.02;12.33;;;;;;;19.28;100.00;99606.59;1782693;80;21056;-69
2022/08/15 02:44:07;;;;;;;18.90;12.55;;;;;;;19.28;100.00;99602.11;1782037;80;21037;-68
2022/08/15 02:46:36;;;;;;;15.75;12.65;;;;;;;19.31;100.00;99597.48;1783004;80;21021;-69
2022/08/15 02:49:05;;;;;;;18.02;12.88;;;;;;;19.34;100.00;99596.73;1782930;80;21127;-68
2022/08/15 02:51:33;;;;;;;24.47;12.93;;;;;;;19.34;100.00;99595.40;1782816;80;21096;-67
2022/08/15 02:54:00;;;;;;;20.60;12.13;;;;;;;19.36;100.00;99600.13;1763283;80;21039;-69
2022/08/15 02:56:27;;;;;;;16.70;11.93;;;;;;;19.37;100.00;99599.17;1752286;81;21044;-67
2022/08/15 02:58:54;;;;;;;15.40;12.95;;;;;;;19.39;100.00;99597.20;1752028;81;20969;-67
2022/08/15 03:01:22;;;;;;;15.60;12.28;;;;;;;19.42;100.00;99598.30;1769072;80;21334;-70
2022/08/15 03:03:53;;;;;;;16.42;12.20;;;;;;;19.44;100.00;99597.69;1782912;80;21498;-68
2022/08/15 03:06:26;;;;;;;18.45;13.15;;;;;;;19.48;100.00;99602.27;1782743;80;21052;-69
2022/08/15 03:08:58;;;;;;;14.28;12.47;;;;;;;19.50;100.00;99598.50;1782843;80;21065;-68
2022/08/15 03:11:23;;;;;;;16.48;11.97;;;;;;;19.52;100.00;99599.72;1782819;80;21069;-69
2022/08/15 03:13:50;;;;;;;15.25;12.37;;;;;;;19.53;100.00;99606.74;1782680;80;21021;-68
2022/08/15 03:16:18;;;;;;;17.20;13.03;;;;;;;19.56;100.00;99607.00;1782740;80;21203;-68
2022/08/15 03:18:45;;;;;;;19.67;12.35;;;;;;;19.61;100.00;99607.46;1782855;80;21005;-68
2022/08/15 03:21:17;;;;;;;23.65;12.63;;;;;;;19.62;100.00;99602.47;1782790;80;21028;-68
2022/08/15 03:23:51;;;;;;;25.68;12.73;;;;;;;19.65;100.00;99607.58;1783221;80;21009;-68
2022/08/15 03:26:17;;;;;;;18.85;12.63;;;;;;;19.64;100.00;99604.03;1782030;80;21009;-68
2022/08/15 03:28:44;;;;;;;19.23;12.90;;;;;;;19.65;100.00;99606.24;1753914;80;21298;-67
2022/08/15 03:31:11;;;;;;;18.60;13.75;;;;;;;19.71;100.00;99603.06;1782629;80;21057;-70
2022/08/15 03:33:39;;;;;;;19.17;12.00;;;;;;;19.74;100.00;99608.17;1782633;80;21049;-67
2022/08/15 03:36:06;;;;;;;18.30;13.18;;;;;;;19.77;100.00;99609.25;1753910;80;21087;-69
2022/08/15 03:38:33;;;;;;;24.32;12.50;;;;;;;19.80;100.00;99607.64;1782658;80;21057;-68
2022/08/15 03:40:59;;;;;;;15.72;11.88;;;;;;;19.85;100.00;99606.80;1782652;80;21280;-68
2022/08/15 03:43:29;;;;;;;16.73;12.25;;;;;;;19.88;100.00;99601.18;1782941;80;21123;-68
2022/08/15 03:45:59;;;;;;;16.25;11.85;;;;;;;19.91;100.00;99599.58;1782742;80;21084;-68
2022/08/15 03:48:31;;;;;;;16.40;11.78;;;;;;;19.94;100.00;99600.30;1782967;80;21089;-69
2022/08/15 03:51:01;;;;;;;16.27;13.03;;;;;;;19.94;100.00;99597.63;1783165;80;21535;-68
2022/08/15 03:53:33;;;;;;;17.07;12.93;;;;;;;19.96;100.00;99600.52;1769847;80;21743;-70
2022/08/15 03:56:02;;;;;;;15.00;12.78;;;;;;;19.97;100.00;99601.36;1751816;81;21021;-69
2022/08/15 03:58:31;;;;;;;17.30;12.27;;;;;;;20.00;100.00;99593.11;1752133;81;21088;-70
2022/08/15 04:00:59;;;;;;;16.02;12.10;;;;;;;20.03;100.00;99595.51;1751795;81;21080;-68
2022/08/15 04:03:29;;;;;;;18.92;12.33;;;;;;;20.05;100.00;99593.55;1751904;81;21041;-68
2022/08/15 04:05:59;;;;;;;15.80;11.85;;;;;;;20.08;100.00;99594.63;1749645;81;21202;-68
2022/08/15 04:08:30;;;;;;;14.93;11.73;;;;;;;20.11;100.00;99595.72;1749464;82;21096;-68
2022/08/15 04:10:55;;;;;;;15.53;11.50;;;;;;;20.12;100.00;99590.72;1749713;82;21056;-69
2022/08/15 04:13:24;;;;;;;15.63;12.47;;;;;;;20.15;100.00;99593.11;1749639;82;20994;-68
2022/08/15 04:15:53;;;;;;;15.83;11.70;;;;;;;20.18;100.00;99595.55;1722408;82;21588;-69
2022/08/15 04:18:20;;;;;;;19.55;12.70;;;;;;;20.21;100.00;99593.09;1749415;82;21202;-67
2022/08/15 04:20:48;;;;;;;17.73;12.37;;;;;;;20.26;100.00;99592.20;1749521;81;21044;-68
2022/08/15 04:23:15;;;;;;;17.07;11.95;;;;;;;20.31;100.00;99593.52;1749521;82;21092;-67
2022/08/15 04:25:42;;;;;;;16.30;12.20;;;;;;;20.36;100.00;99587.78;1754784;80;21075;-68
2022/08/15 04:28:14;;;;;;;14.28;11.50;;;;;;;20.39;100.00;99584.83;1780461;80;21025;-68
2022/08/15 04:30:44;;;;;;;14.28;11.10;;;;;;;20.46;100.00;99591.33;1780508;80;21213;-70
2022/08/15 04:33:21;;;;;;;16.15;11.40;;;;;;;20.51;100.00;99585.09;1780046;80;21064;-69
2022/08/15 04:35:53;;;;;;;17.52;12.33;;;;;;;20.56;100.00;99588.73;1780079;80;21107;-68
2022/08/15 04:38:20;;;;;;;17.05;12.20;;;;;;;20.62;100.00;99593.55;1780075;80;21096;-68
2022/08/15 04:40:49;;;;;;;17.05;12.07;;;;;;;20.70;100.00;99592.38;1756769;81;21093;-69
2022/08/15 04:43:17;;;;;;;15.75;11.63;;;;;;;20.77;100.00;99579.80;1793848;80;21841;-69
2022/08/15 04:45:43;;;;;;;15.03;11.75;;;;;;;20.82;100.00;99581.58;1794143;80;21052;-69
2022/08/15 04:48:14;;;;;;;16.37;11.63;;;;;;;20.88;100.00;99577.87;1794011;80;21083;-68
2022/08/15 04:50:40;;;;;;;14.63;11.45;;;;;;;20.97;100.00;99579.38;1794055;79;21077;-68
2022/08/15 04:53:09;;;;;;;16.00;11.18;;;;;;;21.07;100.00;99581.58;1794477;79;21044;-69
2022/08/15 04:55:36;;;;;;;17.80;11.18;;;;;;;21.18;100.00;99583.30;1794154;80;21828;-67
2022/08/15 04:58:03;;;;;;;15.10;10.75;;;;;;;21.32;100.00;99588.25;1794245;80;21552;-70
2022/08/15 05:00:32;;;;;;;15.18;11.00;;;;;;;21.45;100.00;99592.89;1793951;80;21031;-68
2022/08/15 05:03:18;;;;;;;17.37;10.95;;;;;;;21.70;100.00;99594.67;1793508;80;21536;-70
2022/08/15 05:05:53;;;;;;;19.30;11.03;;;;;;;22.02;100.00;99586.80;1771896;79;21037;-69
2022/08/15 05:08:25;;;;;;;14.23;10.82;;;;;;;22.27;100.00;99582.21;1763439;81;21174;-69
2022/08/15 05:10:57;;;;;;;16.85;10.15;;;;;;;22.53;100.00;99586.93;1763599;81;28831;-69
2022/08/15 05:13:30;;;;;;;16.90;10.40;;;;;;;22.74;100.00;99584.86;1763645;80;21150;-68
2022/08/15 05:15:59;;;;;;;16.45;10.40;;;;;;;22.92;100.00;99578.71;1763364;81;21568;-68
2022/08/15 05:18:31;;;;;;;12.45;10.78;;;;;;;23.14;100.00;99578.30;1763503;81;21105;-69
2022/08/15 05:20:59;;;;;;;16.25;9.55;;;;;;;23.30;100.00;99571.42;1763241;81;21165;-69
2022/08/15 05:23:28;;;;;;;16.23;10.35;;;;;;;23.36;100.00;99573.52;1763757;80;21620;-69
2022/08/15 05:25:57;;;;;;;14.67;10.70;;;;;;;23.39;100.00;99581.26;1763826;81;21565;-69
2022/08/15 05:28:24;;;;;;;15.00;10.40;;;;;;;23.40;100.00;99578.43;1763426;81;21033;-69
2022/08/15 05:30:52;;;;;;;17.57;11.12;;;;;;;23.35;100.00;99575.36;1763767;81;21065;-69
2022/08/15 05:33:23;;;;;;;14.20;10.35;;;;;;;23.28;100.00;99576.10;1763392;81;21081;-69
2022/08/15 05:35:54;;;;;;;12.53;10.20;;;;;;;23.17;100.00;99573.99;1763338;81;21045;-69
2022/08/15 05:38:31;;;;;;;15.98;10.98;;;;;;;23.13;100.00;99573.11;1763519;81;21053;-70
2022/08/15 05:41:14;;;;;;;15.15;11.03;;;;;;;23.13;100.00;99579.81;1761677;81;21043;-67
2022/08/15 05:44:02;;;;;;;14.93;11.13;;;;;;;23.12;100.00;99578.11;1763472;81;21034;-70
2022/08/15 05:47:00;;;;;;;18.95;11.08;;;;;;;23.13;100.00;99576.63;1763241;81;21128;-69
2022/08/15 05:50:08;;;;;;;12.07;10.78;;;;;;;23.12;100.00;99572.27;1763061;81;21155;-68
2022/08/15 05:52:49;;;;;;;15.13;11.48;;;;;;;23.06;100.00;99570.17;1760882;81;21042;-68
2022/08/15 05:55:38;;;;;;;17.60;11.12;;;;;;;22.99;100.00;99570.43;1717920;82;21116;-70
2022/08/15 05:58:22;;;;;;;18.98;11.00;;;;;;;22.97;100.00;99571.05;1733177;82;21128;-68
2022/08/15 06:00:53;;;;;;;17.10;10.90;;;;;;;23.00;100.00;99568.08;1732878;82;21747;-70
2022/08/15 06:03:24;;;;;;;15.00;10.65;;;;;;;23.07;100.00;99566.48;1733341;81;21060;-70
2022/08/15 06:05:55;;;;;;;14.03;10.28;;;;;;;23.14;100.00;99566.22;1748874;81;21080;-69
2022/08/15 06:08:28;;;;;;;18.85;10.13;;;;;;;23.38;100.00;99560.78;1751991;81;21100;-69
2022/08/15 06:11:11;;;;;;;17.42;10.28;;;;;;;23.79;97.14;99561.18;1752123;81;21060;-69
2022/08/15 06:13:43;;;;;;;21.48;10.40;;;;;;;24.15;95.92;99558.40;1752142;81;21168;-70
2022/08/15 06:16:37;;;;;;;17.52;10.78;;;;;;;24.36;93.00;99558.86;1751845;81;21366;-70
2022/08/15 06:19:09;;;;;;;19.32;9.70;;;;;;;24.43;92.77;99565.31;1749160;81;21072;-69
2022/08/15 06:21:48;;;;;;;14.03;9.63;;;;;;;24.51;90.66;99556.47;1751148;81;21075;-69
2022/08/15 06:24:53;;;;;;;14.78;9.63;;;;;;;24.62;90.08;99564.77;1752340;81;21089;-70
2022/08/15 06:27:43;;;;;;;13.58;9.85;;;;;;;24.62;89.73;99558.04;1751406;81;21620;-70
2022/08/15 06:30:15;;;;;;;14.45;9.70;;;;;;;24.61;90.70;99559.03;1752139;81;21060;-72
2022/08/15 06:33:06;;;;;;;14.98;9.00;;;;;;;24.52;90.34;99549.23;1751729;81;21029;-72
2022/08/15 06:35:40;;;;;;;;;;;;;;;24.42;91.14;99549.32;1764713;80;21068;-70
2022/08/15 06:38:34;;;;;;;14.23;9.30;;;;;;;24.38;90.68;99554.67;1782851;80;20230;-70
2022/08/15 06:41:18;;;;;;;12.63;9.08;;;;;;;24.36;90.88;99553.48;1782694;80;21849;-70
2022/08/15 06:43:46;;;;;;;21.77;9.05;;;;;;;24.40;90.08;99564.27;1782459;80;21032;-70
2022/08/15 06:46:21;;;;;;;14.85;9.23;;;;;;;24.47;90.08;99559.96;1769093;80;21071;-70
2022/08/15 06:48:49;;;;;;;15.83;8.98;;;;;;;24.59;89.80;99566.42;1782764;80;21111;-69
2022/08/15 06:51:17;;;;;;;10.58;8.73;;;;;;;24.69;88.71;99560.42;1783233;79;21083;-69
2022/08/15 06:53:55;;;;;;;12.40;8.50;;;;;;;24.81;87.94;99565.84;1782894;80;21099;-69
2022/08/15 06:56:45;;;;;;;12.23;8.48;;;;;;;25.12;85.34;99567.96;1782602;80;21060;-69
2022/08/15 06:59:37;;;;;;;14.07;8.73;;;;;;;25.50;85.08;99560.33;1781584;80;20978;-70
2022/08/15 07:02:23;;;;;;;15.15;8.53;;;;;;;25.85;83.08;99566.41;1782712;80;21063;-70
2022/08/15 07:05:20;;;;;;;16.05;8.73;;;;;;;25.99;81.73;99570.31;1782390;80;21049;-70
2022/08/15 07:08:04;;;;;;;13.62;8.53;;;;;;;25.92;81.30;99570.14;1768607;81;21114;-69
2022/08/15 07:10:52;;;;;;;9.40;8.30;;;;;;;25.79;81.26;99567.08;1746872;81;21092;-70
2022/08/15 07:13:32;;;;;;;12.95;8.63;;;;;;;25.65;82.26;99557.32;1766864;80;21053;-69
2022/08/15 07:16:08;;;;;;;14.85;8.03;;;;;;;25.61;81.54;99561.36;1767842;80;21041;-69
2022/08/15 07:18:42;;;;;;;11.30;8.18;;;;;;;25.49;81.21;99564.02;1768697;81;21851;-70
2022/08/15 07:21:16;;;;;;;14.43;8.33;;;;;;;25.34;80.94;99563.84;1767364;80;21123;-69
2022/08/15 07:24:07;;;;;;;16.48;8.35;;;;;;;25.22;82.45;99573.27;1746824;81;21132;-70
2022/08/15 07:27:02;;;;;;;20.12;8.00;;;;;;;25.13;82.70;99577.23;1768722;81;21025;-69
2022/08/15 07:29:40;;;;;;;14.98;8.83;;;;;;;25.08;82.77;99577.41;1767402;81;21041;-70
2022/08/15 07:32:24;;;;;;;13.28;8.70;;;;;;;25.06;82.94;99582.94;1768502;81;21653;-70
2022/08/15 07:35:14;;;;;;;12.65;8.50;;;;;;;25.09;82.79;99589.85;1768789;81;21108;-70
2022/08/15 07:37:51;;;;;;;;;;;;;;;25.12;83.02;99594.91;1769354;80;21056;-70
2022/08/15 07:40:32;;;;;;;15.28;8.65;;;;;;;25.21;81.69;99598.50;1768420;81;20234;-70
2022/08/15 07:43:01;;;;;;;14.50;8.25;;;;;;;25.24;81.36;99596.34;1768898;81;21108;-68
2022/08/15 07:45:39;;;;;;;14.87;9.15;;;;;;;25.36;81.71;99596.03;1769043;81;21002;-70
2022/08/15 07:48:28;;;;;;;18.92;8.80;;;;;;;25.52;81.30;99592.02;1768311;80;21198;-69
2022/08/15 07:51:25;;;;;;;9.83;8.20;;;;;;;25.72;79.42;99601.48;1768798;80;21628;-70
2022/08/15 07:54:02;;;;;;;11.90;7.90;;;;;;;26.10;75.66;99598.30;1749970;80;21593;-69
2022/08/15 07:56:33;;;;;;;19.02;7.72;;;;;;;26.53;70.07;99594.34;1737689;82;21546;-69
2022/08/15 08:00:25;;;;;;;14.15;8.60;;;;;;;26.76;68.77;99593.63;1782079;80;22626;-70
2022/08/15 08:03:02;;;;;;;15.05;7.95;;;;;;;26.70;68.64;99590.27;1756455;81;21367;-68
2022/08/15 08:05:51;;;;;;;14.38;8.35;;;;;;;26.72;67.89;99585.54;1756315;81;22128;-69
2022/08/15 08:08:19;;;;;;;10.65;7.62;;;;;;;26.63;68.49;99586.59;1756475;81;21061;-70
2022/08/15 08:10:50;;;;;;;9.83;7.87;;;;;;;26.55;68.29;99589.65;1756394;81;22109;-70
2022/08/15 08:13:44;;;;;;;17.10;7.97;;;;;;;26.44;68.87;99592.68;1756214;81;21075;-69
2022/08/15 08:16:28;;;;;;;12.58;7.67;;;;;;;26.34;70.20;99596.06;1755457;81;21744;-69
2022/08/15 08:19:09;;;;;;;13.55;7.70;;;;;;;26.28;70.40;99588.67;1756463;81;21608;-70
2022/08/15 08:21:57;;;;;;;14.38;8.45;;;;;;;26.20;70.49;99585.97;1756304;81;21549;-70
2022/08/15 08:24:51;;;;;;;14.33;8.90;;;;;;;26.05;71.10;99581.27;1756437;81;21033;-70
2022/08/15 08:27:33;;;;;;;15.25;8.50;;;;;;;25.97;71.53;99581.27;1756403;81;21048;-70
2022/08/15 08:30:05;;;;;;;12.50;8.25;;;;;;;25.91;73.23;99581.95;1726180;81;21073;-70
2022/08/15 08:32:49;;;;;;;11.15;7.67;;;;;;;25.89;73.00;99588.86;1726141;81;21392;-69
2022/08/15 08:35:38;;;;;;;16.42;8.45;;;;;;;25.91;73.00;99588.19;1753266;81;21548;-69
2022/08/15 08:38:25;;;;;;;17.77;9.35;;;;;;;26.04;73.06;99587.66;1756577;81;21100;-69
2022/08/15 08:41:24;;;;;;;14.20;8.03;;;;;;;26.19;73.19;99586.99;1756167;81;21548;-70
2022/08/15 08:44:23;;;;;;;14.58;8.45;;;;;;;26.39;72.71;99585.61;1756394;81;21085;-70
2022/08/15 08:47:40;;;;;;;12.40;8.20;;;;;;;26.53;71.27;99590.30;1756133;81;21116;-70
2022/08/15 08:50:12;;;;;;;11.70;8.73;;;;;;;26.41;71.96;99580.89;1756628;81;21093;-70
2022/08/15 08:52:47;;;;;;;19.27;8.35;;;;;;;26.32;72.24;99571.12;1757952;80;21025;-69
2022/08/15 08:55:30;;;;;;;11.80;8.33;;;;;;;26.27;71.90;99577.03;1777690;80;21057;-69
2022/08/15 08:58:06;;;;;;;9.63;8.63;;;;;;;26.24;73.17;99571.12;1740211;82;21039;-70
2022/08/15 09:00:46;;;;;;;15.00;8.80;;;;;;;26.25;73.19;99562.00;1722747;83;21571;-71
2022/08/15 09:03:27;;;;;;;13.40;8.45;;;;;;;26.22;72.31;99567.75;1703484;84;21209;-70
2022/08/15 09:05:56;;;;;;;16.20;10.05;;;;;;;26.22;72.64;99578.55;1703636;84;21027;-69
2022/08/15 09:08:34;;;;;;;12.75;7.37;;;;;;;26.23;70.53;99581.08;1722728;83;21076;-69
2022/08/15 09:11:08;;;;;;;13.05;7.30;;;;;;;26.27;70.83;99595.06;1701808;84;21090;-69
2022/08/15 09:13:37;;;;;;;12.93;7.58;;;;;;;26.35;69.63;99595.06;1722269;83;21156;-70
2022/08/15 09:16:26;;;;;;;12.05;6.83;;;;;;;26.44;69.33;99603.99;1655462;84;21079;-70
2022/08/15 09:19:23;;;;;;;15.60;6.60;;;;;;;26.46;68.09;99601.45;1659269;86;21106;-70
2022/08/15 09:21:50;;;;;;;14.18;7.03;;;;;;;26.47;66.80;99604.47;1659268;86;21099;-70
2022/08/15 09:24:19;;;;;;;14.63;6.85;;;;;;;26.62;67.75;99601.09;1659228;86;21095;-69
2022/08/15 09:26:57;;;;;;;12.15;7.60;;;;;;;26.89;66.45;99606.05;1659122;86;21123;-69
2022/08/15 09:29:34;;;;;;;14.50;6.75;;;;;;;27.04;65.19;99591.83;1658964;86;21730;-69
2022/08/15 09:32:30;;;;;;;14.33;6.70;;;;;;;27.17;64.37;99592.08;1659235;86;21054;-69
2022/08/15 09:35:43;;;;;;;10.45;5.72;;;;;;;27.28;63.99;99600.34;1659243;86;21075;-70
2022/08/15 09:38:49;;;;;;;20.23;6.90;;;;;;;27.38;62.80;99584.23;1659179;86;21150;-70
2022/08/15 09:41:42;;;;;;;11.65;6.25;;;;;;;27.49;62.81;99592.94;1659203;86;21259;-69
2022/08/15 09:44:47;;;;;;;13.38;6.33;;;;;;;27.57;63.04;99582.91;1684053;84;21055;-70
2022/08/15 09:47:39;;;;;;;11.85;6.47;;;;;;;27.70;63.38;99574.20;1684003;85;21075;-70
2022/08/15 09:50:45;;;;;;;20.65;8.85;;;;;;;27.88;61.75;99578.48;1684101;85;21075;-69
2022/08/15 09:53:46;;;;;;;12.68;6.00;;;;;;;27.99;61.84;99578.88;1692163;83;21099;-70
2022/08/15 09:56:17;;;;;;;14.13;6.65;;;;;;;28.00;61.10;99574.33;1712494;83;21197;-70
2022/08/15 09:59:10;;;;;;;10.35;6.20;;;;;;;27.87;61.63;99572.75;1712094;83;21524;-69
2022/08/15 10:01:47;;;;;;;9.83;6.08;;;;;;;27.79;62.23;99570.41;1706826;83;21067;-72
2022/08/15 10:04:17;;;;;;;15.25;6.37;;;;;;;27.80;61.80;99574.78;1683605;83;21540;-71
2022/08/15 10:07:05;;;;;;;16.95;6.10;;;;;;;27.77;61.75;99567.05;1706886;84;21083;-71
2022/08/15 10:09:37;;;;;;;11.93;6.42;;;;;;;27.79;61.81;99574.95;1707023;84;21265;-71
2022/08/15 10:12:15;;;;;;;12.70;5.90;;;;;;;27.77;61.65;99562.98;1686506;84;21669;-70
2022/08/15 10:15:02;;;;;;;11.03;6.35;;;;;;;27.75;60.83;99565.55;1707120;84;21122;-72
2022/08/15 10:17:39;;;;;;;13.65;6.22;;;;;;;27.65;61.30;99567.13;1706656;84;21075;-70
2022/08/15 10:20:22;;;;;;;13.70;5.97;;;;;;;27.66;61.95;99578.29;1706931;84;21052;-69
2022/08/15 10:23:07;;;;;;;15.72;6.20;;;;;;;27.74;61.94;99570.09;1706617;84;21253;-70
2022/08/15 10:25:37;;;;;;;12.70;6.22;;;;;;;27.81;61.14;99575.63;1706814;84;21064;-70
2022/08/15 10:28:16;;;;;;;12.90;5.90;;;;;;;27.77;61.61;99571.10;1706888;84;21055;-70
2022/08/15 10:31:04;;;;;;;15.58;6.47;;;;;;;27.78;61.60;99568.71;1706703;83;21107;-70
2022/08/15 10:33:38;;;;;;;11.20;6.00;;;;;;;27.86;60.90;99558.87;1706775;84;21098;-71
2022/08/15 10:36:13;;;;;;;17.80;6.12;;;;;;;28.02;61.16;99554.66;1706573;84;21631;-70
2022/08/15 10:38:45;;;;;;;13.58;5.50;;;;;;;28.13;60.46;99542.03;1706740;84;21051;-69
2022/08/15 10:41:34;;;;;;;16.03;5.57;;;;;;;28.29;59.50;99546.96;1707179;83;21058;-70
2022/08/15 10:44:36;;;;;;;10.72;5.50;;;;;;;28.43;59.96;99545.59;1706824;84;21124;-71
2022/08/15 10:47:21;;;;;;;12.93;5.22;;;;;;;28.52;59.71;99543.67;1707107;84;21056;-71
2022/08/15 10:50:20;;;;;;;10.50;5.25;;;;;;;28.50;58.92;99540.31;1704877;83;21232;-71
2022/08/15 10:53:13;;;;;;;13.70;5.78;;;;;;;28.47;59.32;99544.76;1709376;83;21063;-70
2022/08/15 10:55:41;;;;;;;31.48;6.25;;;;;;;28.40;57.39;99545.98;1763279;81;21625;-71
2022/08/15 10:58:15;;;;;;;17.82;5.08;;;;;;;28.29;56.80;99544.25;1743694;81;21030;-70
2022/08/15 11:01:07;;;;;;;15.20;6.35;;;;;;;28.11;56.37;99550.85;1764138;81;21096;-70
2022/08/15 11:03:44;;;;;;;13.65;5.75;;;;;;;27.89;57.00;99555.82;1765357;81;21126;-70
2022/08/15 11:06:14;;;;;;;17.98;6.60;;;;;;;27.69;58.21;99563.04;1765804;81;21041;-70
2022/08/15 11:08:49;;;;;;;16.75;7.95;;;;;;;27.53;58.75;99556.41;1766447;81;21046;-70
2022/08/15 11:11:18;;;;;;;18.80;6.00;;;;;;;27.36;57.02;99545.71;1765954;81;21042;-71
2022/08/15 11:13:57;;;;;;;15.90;6.70;;;;;;;27.21;55.96;99533.98;1738286;81;21077;-70
2022/08/15 11:16:36;;;;;;;12.93;6.80;;;;;;;27.06;56.65;99527.64;1766124;81;21915;-70
2022/08/15 11:19:28;;;;;;;20.72;6.25;;;;;;;26.93;57.56;99525.51;1754937;81;21066;-70
2022/08/15 11:22:01;;;;;;;10.50;6.05;;;;;;;26.86;59.85;99513.21;1724632;82;21039;-70
2022/08/15 11:24:39;;;;;;;20.23;5.95;;;;;;;26.85;63.59;99507.49;1717372;83;21023;-69
2022/08/15 11:27:16;;;;;;;16.60;5.90;;;;;;;26.77;65.01;99505.66;1718219;83;21098;-70
2022/08/15 11:29:44;;;;;;;12.03;5.87;;;;;;;26.63;64.64;99510.97;1718313;83;21061;-71
2022/08/15 11:32:33;;;;;;;10.35;5.58;;;;;;;26.48;66.37;99508.98;1717900;83;21133;-70
2022/08/15 11:35:23;;;;;;;20.02;8.53;;;;;;;26.38;66.28;99506.98;1718418;83;21027;-70
2022/08/15 11:37:50;;;;;;;12.98;6.20;;;;;;;26.37;66.77;99512.05;1718143;83;21603;-70
2022/08/15 11:40:28;;;;;;;16.67;6.75;;;;;;;26.36;66.33;99510.36;1689951;83;21086;-71
2022/08/15 11:42:54;;;;;;;13.03;6.40;;;;;;;26.36;66.02;99521.16;1718030;83;21191;-70
2022/08/15 11:45:26;;;;;;;8.55;5.80;;;;;;;26.38;65.30;99526.70;1718509;83;21035;-70
2022/08/15 11:47:54;;;;;;;10.48;5.58;;;;;;;26.41;64.34;99525.55;1717531;83;21047;-70
2022/08/15 11:50:39;;;;;;;13.70;6.17;;;;;;;26.47;64.47;99530.74;1718181;83;21606;-69
2022/08/15 11:53:09;;;;;;;15.30;6.15;;;;;;;26.49;64.16;99528.72;1725760;82;21055;-69
2022/08/15 11:55:42;;;;;;;12.50;5.60;;;;;;;26.57;63.69;99529.56;1748303;82;21827;-69
2022/08/15 11:58:20;;;;;;;17.40;5.35;;;;;;;26.66;62.40;99525.47;1747758;82;21050;-69
2022/08/15 12:00:53;;;;;;;;;;;;;;;26.66;62.17;99521.41;1750359;82;21043;-71